weather.gov     
National Weather Service

Terminal Aerodrome Forecast
NWS Homepage
This page is being discontinued on March 12, 2014.
The same data is available at this site. Please update your bookmarks.
Thank you, and we apologize for the inconvenience.
Please send an email to SR-SRH.Webmaster@noaa.gov with any concerns.


Current Version
Previous Version:    01  02  03  04  05  06  07  08  09  10  11  12  13  14  15  16  17  18  19  20  21  22  23  24  25  26  27  28  29  30  
   31  
[Printable]
708
FTUS43 KGRB 230500
TAFCWA
TAF
KCWA 230520Z 2306/2406 13005KT P6SM SCT090 BKN250
     FM230900 14003KT P6SM BKN080
     FM231200 14005KT P6SM VCSH SCT025 OVC040
     FM231600 15005KT 5SM -SHRA BR OVC015
     FM232200 20005KT P6SM OVC012
     FM240300 25003KT 5SM BR OVC009
      AMD LTD TO CLD VIS AND WIND TIL 231200=


U.S. Dept. of Commerce
NOAA National Weather Service
1325 East West Highway
Silver Spring, MD 20910
E-mail: w-nws.webmaster@noaa.gov
Page last modified: May 16, 2007
NATIONAL WEATHER SERVICE: for Safety, for Work, for Fun - FOR LIFE